Time;durP1;ratioP1;P1;durP2;ratioP2;P2;SDS_P1;SDS_P2;PMS_P1;PMS_P2;Temp;Humidity;BMP_temperature;BMP_pressure;BME280_temperature;BME280_humidity;BME280_pressure;Samples;Min_cycle;Max_cycle;Signal;HPM_P1;HPM_P2
2024/02/20 00:00:05;;;;;;;1.88;1.10;;;14.40;97.50;;;;;;5013604;28;20029;-45
2024/02/20 00:02:32;;;;;;;1.30;0.88;;;14.30;97.60;;;;;;5013850;28;20507;-45
2024/02/20 00:04:58;;;;;;;1.48;0.90;;;14.30;97.60;;;;;;5013384;28;20047;-45
2024/02/20 00:07:24;;;;;;;1.40;0.90;;;14.30;98.00;;;;;;5012321;28;20025;-45
2024/02/20 00:09:49;;;;;;;1.23;0.90;;;14.20;97.70;;;;;;5013785;28;20539;-45
2024/02/20 00:12:15;;;;;;;1.98;1.10;;;14.20;97.80;;;;;;5013543;28;20464;-45
2024/02/20 00:14:41;;;;;;;1.70;0.90;;;14.20;97.80;;;;;;5013508;28;20369;-45
2024/02/20 00:17:07;;;;;;;1.50;0.93;;;14.20;97.90;;;;;;5013308;28;20491;-45
2024/02/20 00:19:33;;;;;;;1.20;0.75;;;14.10;97.90;;;;;;5013329;28;20026;-46
2024/02/20 00:21:58;;;;;;;1.63;0.90;;;14.10;98.00;;;;;;5014246;28;20076;-46
2024/02/20 00:24:24;;;;;;;1.08;0.80;;;14.00;98.00;;;;;;5014810;28;20034;-45
2024/02/20 00:26:50;;;;;;;1.58;0.65;;;14.10;98.10;;;;;;5014724;28;20030;-46
2024/02/20 00:29:15;;;;;;;1.20;0.70;;;14.00;98.10;;;;;;5014572;28;20428;-45
2024/02/20 00:31:41;;;;;;;1.35;0.70;;;14.00;98.20;;;;;;5014054;28;20026;-45
2024/02/20 00:34:07;;;;;;;1.00;0.80;;;14.00;98.20;;;;;;5013506;28;20030;-45
2024/02/20 00:36:32;;;;;;;1.35;0.90;;;14.00;98.20;;;;;;5014087;28;20117;-45
2024/02/20 00:38:58;;;;;;;1.13;0.70;;;13.90;98.30;;;;;;5012957;28;20022;-44
2024/02/20 00:41:24;;;;;;;0.98;0.70;;;13.90;98.30;;;;;;5013161;28;20522;-45
2024/02/20 00:43:49;;;;;;;1.15;0.65;;;13.80;98.30;;;;;;5012975;28;20028;-45
2024/02/20 00:46:22;;;;;;;1.20;0.80;;;13.80;98.40;;;;;;5012830;28;20113;-45
2024/02/20 00:48:49;;;;;;;1.88;0.90;;;13.80;98.50;;;;;;5012430;28;20507;-44
2024/02/20 00:51:19;;;;;;;1.15;0.77;;;13.80;98.50;;;;;;5012724;28;20033;-45
2024/02/20 00:53:46;;;;;;;1.95;1.20;;;13.80;98.60;;;;;;5012942;28;20026;-44
2024/02/20 00:56:12;;;;;;;1.10;0.88;;;13.80;98.70;;;;;;5012590;28;20121;-45
2024/02/20 00:58:38;;;;;;;1.63;1.08;;;13.70;98.70;;;;;;5012568;28;20112;-45
2024/02/20 01:01:04;;;;;;;1.92;0.90;;;13.70;98.80;;;;;;5012533;28;20109;-44
2024/02/20 01:03:30;;;;;;;1.65;0.80;;;13.70;98.80;;;;;;5012430;28;20596;-45
2024/02/20 01:05:56;;;;;;;0.85;0.70;;;13.70;98.90;;;;;;5012450;28;20025;-45
2024/02/20 01:08:21;;;;;;;0.98;0.77;;;13.70;98.90;;;;;;5011034;28;20514;-45
2024/02/20 01:10:47;;;;;;;1.50;0.80;;;13.70;98.90;;;;;;5012308;28;20484;-45
2024/02/20 01:13:13;;;;;;;1.52;0.90;;;13.60;98.90;;;;;;5012510;28;20026;-45
2024/02/20 01:15:38;;;;;;;1.48;0.75;;;13.70;98.90;;;;;;5012924;28;20030;-45
2024/02/20 01:18:04;;;;;;;1.45;0.82;;;13.60;98.90;;;;;;5012887;28;20109;-45
2024/02/20 01:20:30;;;;;;;1.50;0.80;;;13.70;98.90;;;;;;5011769;28;20025;-45
2024/02/20 01:22:56;;;;;;;1.70;0.95;;;13.60;98.90;;;;;;5012294;28;20040;-45
2024/02/20 01:25:21;;;;;;;1.25;0.70;;;13.60;98.90;;;;;;5012038;28;20030;-45
2024/02/20 01:27:47;;;;;;;0.82;0.60;;;13.60;98.90;;;;;;5012119;28;20080;-45
2024/02/20 01:30:13;;;;;;;1.38;0.98;;;13.60;99.00;;;;;;5011978;28;20033;-45
2024/02/20 01:32:39;;;;;;;0.90;0.70;;;13.60;99.00;;;;;;5012076;28;20073;-45
2024/02/20 01:35:06;;;;;;;1.73;0.95;;;13.50;99.00;;;;;;5012031;28;20381;-45
2024/02/20 01:37:31;;;;;;;1.88;1.00;;;13.50;99.00;;;;;;5011941;28;20029;-46
2024/02/20 01:39:57;;;;;;;0.95;0.70;;;13.60;99.00;;;;;;5011789;28;20032;-45
2024/02/20 01:42:23;;;;;;;1.67;0.80;;;13.50;99.00;;;;;;5010628;28;20026;-45
2024/02/20 01:44:48;;;;;;;0.77;0.55;;;13.50;99.00;;;;;;5011795;28;20057;-44
2024/02/20 01:47:16;;;;;;;1.25;0.60;;;13.50;99.10;;;;;;5011752;28;20060;-44
2024/02/20 01:49:42;;;;;;;0.73;0.50;;;13.50;99.10;;;;;;5011943;28;20041;-44
2024/02/20 01:52:12;;;;;;;1.20;0.70;;;13.50;99.10;;;;;;5012199;28;20022;-44
2024/02/20 01:54:39;;;;;;;1.00;0.70;;;13.50;99.20;;;;;;5011787;28;20018;-45
2024/02/20 01:57:06;;;;;;;1.98;0.90;;;13.40;99.20;;;;;;5011604;28;20022;-45
2024/02/20 01:59:35;;;;;;;0.88;0.70;;;13.40;99.20;;;;;;5011659;28;20037;-45
2024/02/20 02:02:01;;;;;;;1.20;0.90;;;13.40;99.20;;;;;;5011644;28;20399;-45
2024/02/20 02:04:26;;;;;;;1.60;0.80;;;13.40;99.30;;;;;;5011625;28;20420;-45
2024/02/20 02:06:52;;;;;;;0.75;0.60;;;13.30;99.20;;;;;;5010075;28;20044;-45
2024/02/20 02:09:17;;;;;;;1.52;0.90;;;13.40;99.30;;;;;;5011400;28;20029;-45
2024/02/20 02:11:43;;;;;;;2.00;0.85;;;13.30;99.30;;;;;;5011717;28;20480;-45
2024/02/20 02:14:09;;;;;;;1.40;0.68;;;13.30;99.30;;;;;;5011512;28;20030;-44
2024/02/20 02:16:38;;;;;;;2.10;0.80;;;13.30;99.40;;;;;;5011339;28;20018;-44
2024/02/20 02:19:05;;;;;;;2.05;0.80;;;13.30;99.50;;;;;;5011421;28;20373;-45
2024/02/20 02:21:31;;;;;;;0.60;0.52;;;13.30;99.50;;;;;;5011558;28;20037;-44
2024/02/20 02:23:56;;;;;;;1.85;0.88;;;13.30;99.50;;;;;;5011560;28;20108;-44
2024/02/20 02:26:22;;;;;;;1.42;0.60;;;13.30;99.60;;;;;;5011300;28;20546;-45
2024/02/20 02:28:48;;;;;;;1.05;0.80;;;13.30;99.50;;;;;;5011172;28;20113;-45
2024/02/20 02:31:16;;;;;;;1.80;0.80;;;13.30;99.50;;;;;;5013697;28;20503;-44
2024/02/20 02:33:45;;;;;;;1.63;0.80;;;13.20;99.50;;;;;;5015315;28;20030;-44
2024/02/20 02:36:12;;;;;;;1.55;0.70;;;13.30;99.50;;;;;;5015190;28;20034;-44
2024/02/20 02:38:38;;;;;;;1.33;0.70;;;13.20;99.50;;;;;;5015181;28;20025;-45
2024/02/20 02:41:05;;;;;;;1.80;0.77;;;13.30;99.50;;;;;;5015185;28;20411;-44
2024/02/20 02:43:31;;;;;;;1.50;0.65;;;13.30;99.90;;;;;;5015062;28;20472;-44
2024/02/20 02:45:56;;;;;;;0.98;0.70;;;13.20;99.80;;;;;;5015036;28;20044;-45
2024/02/20 02:48:22;;;;;;;1.88;0.73;;;13.20;99.50;;;;;;5015123;28;20109;-44
2024/02/20 02:50:48;;;;;;;1.00;0.57;;;13.20;99.50;;;;;;5015045;28;20404;-44
2024/02/20 02:53:13;;;;;;;1.50;0.73;;;13.20;99.50;;;;;;5015350;28;20387;-45
2024/02/20 02:55:39;;;;;;;1.25;0.60;;;13.20;99.60;;;;;;5013593;28;20046;-44
2024/02/20 02:58:06;;;;;;;1.70;0.77;;;13.20;99.60;;;;;;5014794;28;20030;-45
2024/02/20 03:00:32;;;;;;;1.95;0.80;;;13.20;99.70;;;;;;5015402;28;20606;-45
2024/02/20 03:02:57;;;;;;;2.80;0.80;;;13.20;99.60;;;;;;5015813;28;20487;-44
2024/02/20 03:05:23;;;;;;;1.17;0.77;;;13.10;99.60;;;;;;5014671;28;20041;-44
2024/02/20 03:07:49;;;;;;;1.23;0.60;;;13.20;99.60;;;;;;5014632;28;20403;-44
2024/02/20 03:10:15;;;;;;;1.42;0.60;;;13.10;99.60;;;;;;5014550;28;20053;-45
2024/02/20 03:12:41;;;;;;;0.73;0.73;;;13.10;99.70;;;;;;5014578;28;20040;-44
2024/02/20 03:15:07;;;;;;;0.77;0.50;;;13.10;99.70;;;;;;5014511;28;20033;-45
2024/02/20 03:17:33;;;;;;;1.30;0.70;;;13.10;99.70;;;;;;5014654;28;20038;-45
2024/02/20 03:19:58;;;;;;;1.02;0.60;;;13.10;99.70;;;;;;5014746;28;20037;-45
2024/02/20 03:22:24;;;;;;;1.63;0.65;;;13.00;99.70;;;;;;5014524;28;20029;-45
2024/02/20 03:24:52;;;;;;;1.45;0.60;;;13.00;99.70;;;;;;5014298;28;20038;-44
2024/02/20 03:27:17;;;;;;;1.85;0.75;;;13.00;99.80;;;;;;5014195;28;20038;-45
2024/02/20 03:29:43;;;;;;;2.17;0.50;;;13.00;99.80;;;;;;5014199;28;20084;-45
2024/02/20 03:32:09;;;;;;;1.77;0.70;;;13.00;99.80;;;;;;5014314;28;20479;-45
2024/02/20 03:34:35;;;;;;;1.17;0.50;;;13.00;99.80;;;;;;5013140;28;20040;-45
2024/02/20 03:37:01;;;;;;;1.35;0.70;;;13.00;99.80;;;;;;5014221;28;20018;-45
2024/02/20 03:39:27;;;;;;;2.35;0.70;;;13.00;99.80;;;;;;5014137;28;20480;-44
2024/02/20 03:41:53;;;;;;;2.17;0.80;;;13.00;99.80;;;;;;5013720;28;20085;-44
2024/02/20 03:44:18;;;;;;;1.45;0.60;;;13.00;99.90;;;;;;5014197;28;20014;-44
2024/02/20 03:46:44;;;;;;;1.73;0.73;;;13.00;99.90;;;;;;5013925;28;20022;-45
2024/02/20 03:49:10;;;;;;;1.27;0.68;;;13.00;99.90;;;;;;5013883;28;20025;-45
2024/02/20 03:51:35;;;;;;;1.67;0.68;;;12.90;99.90;;;;;;5013878;28;20022;-45
2024/02/20 03:54:01;;;;;;;1.48;0.60;;;12.90;99.90;;;;;;5013935;28;20025;-45
2024/02/20 03:56:27;;;;;;;1.77;0.70;;;12.90;99.90;;;;;;5013729;28;20509;-45
2024/02/20 03:58:52;;;;;;;0.60;0.40;;;12.90;99.90;;;;;;5013571;28;20026;-45
2024/02/20 04:01:18;;;;;;;2.25;0.70;;;12.90;99.90;;;;;;5014057;28;20117;-44
2024/02/20 04:03:43;;;;;;;2.50;0.70;;;12.90;99.90;;;;;;5014119;28;20030;-44
2024/02/20 04:06:09;;;;;;;1.50;0.80;;;12.90;99.90;;;;;;5013895;28;20034;-44
2024/02/20 04:08:35;;;;;;;1.13;0.47;;;12.90;99.90;;;;;;5013501;28;20026;-45
2024/02/20 04:11:01;;;;;;;1.10;0.70;;;12.90;99.90;;;;;;5013792;28;20029;-45
2024/02/20 04:13:26;;;;;;;2.58;0.95;;;12.80;99.90;;;;;;5013528;28;20105;-45
2024/02/20 04:15:52;;;;;;;2.00;0.77;;;12.90;99.90;;;;;;5013350;28;20024;-45
2024/02/20 04:18:18;;;;;;;2.92;0.63;;;12.80;99.90;;;;;;5013337;28;20088;-45
2024/02/20 04:20:43;;;;;;;2.00;0.68;;;12.80;99.90;;;;;;5013238;28;20030;-44
2024/02/20 04:23:09;;;;;;;1.35;0.70;;;12.80;99.90;;;;;;5013296;28;20092;-45
2024/02/20 04:25:35;;;;;;;1.77;0.98;;;12.80;99.90;;;;;;5012835;28;20037;-44
2024/02/20 04:28:00;;;;;;;2.13;0.95;;;12.80;99.90;;;;;;5013162;28;20105;-44
2024/02/20 04:30:26;;;;;;;2.83;0.75;;;12.80;99.90;;;;;;5013097;28;20026;-44
2024/02/20 04:32:52;;;;;;;2.38;0.70;;;12.80;99.90;;;;;;5013191;28;20033;-45
2024/02/20 04:35:17;;;;;;;2.08;0.75;;;12.80;99.90;;;;;;5013034;28;20105;-45
2024/02/20 04:37:44;;;;;;;2.22;0.88;;;12.80;99.90;;;;;;5013074;28;20021;-44
2024/02/20 04:40:11;;;;;;;1.60;0.85;;;12.80;99.90;;;;;;5011781;28;20492;-44
2024/02/20 04:42:36;;;;;;;1.35;0.60;;;12.80;99.90;;;;;;5013756;28;20049;-44
2024/02/20 04:45:02;;;;;;;2.10;0.82;;;12.80;99.90;;;;;;5013115;28;20057;-45
2024/02/20 04:47:30;;;;;;;1.13;0.60;;;12.80;99.90;;;;;;5011881;28;20041;-45
2024/02/20 04:49:55;;;;;;;1.80;0.60;;;12.70;99.90;;;;;;5012656;28;20022;-44
2024/02/20 04:52:21;;;;;;;2.03;0.70;;;12.80;99.90;;;;;;5012820;28;20026;-45
2024/02/20 04:54:47;;;;;;;1.80;0.80;;;12.70;99.90;;;;;;5011871;28;20491;-45
2024/02/20 04:57:12;;;;;;;1.70;0.73;;;12.70;99.90;;;;;;5012673;28;20029;-45
2024/02/20 04:59:41;;;;;;;1.65;0.65;;;12.70;99.90;;;;;;5012573;28;20116;-45
2024/02/20 05:02:08;;;;;;;2.05;0.80;;;12.70;99.90;;;;;;5012693;28;20512;-45
2024/02/20 05:04:34;;;;;;;2.97;0.80;;;12.70;99.90;;;;;;5012576;28;20167;-44
2024/02/20 05:07:00;;;;;;;2.30;0.85;;;12.70;99.90;;;;;;5012396;28;20032;-44
2024/02/20 05:09:26;;;;;;;3.00;0.80;;;12.70;99.90;;;;;;5012265;28;20455;-44
2024/02/20 05:11:51;;;;;;;1.95;0.90;;;12.70;99.90;;;;;;5012427;28;20025;-44
2024/02/20 05:14:17;;;;;;;3.55;1.02;;;12.70;99.90;;;;;;5012408;28;20037;-44
2024/02/20 05:16:43;;;;;;;1.25;0.77;;;12.60;99.90;;;;;;5012337;28;20047;-44
2024/02/20 05:19:08;;;;;;;3.55;1.00;;;12.70;99.90;;;;;;5012135;28;20054;-44
2024/02/20 05:21:34;;;;;;;2.95;1.00;;;12.60;99.90;;;;;;5012246;28;20505;-44
2024/02/20 05:24:00;;;;;;;3.80;0.70;;;12.60;99.90;;;;;;5012173;28;20033;-44
2024/02/20 05:26:25;;;;;;;2.95;0.80;;;12.60;99.90;;;;;;5012398;28;20112;-44
2024/02/20 05:28:51;;;;;;;2.75;0.88;;;12.60;99.90;;;;;;5012011;28;20025;-44
2024/02/20 05:31:30;;;;;;;3.63;1.10;;;12.60;99.90;;;;;;5012079;28;20543;-45
2024/02/20 05:33:57;;;;;;;3.00;0.82;;;12.70;99.90;;;;;;5012061;28;20157;-44
2024/02/20 05:36:33;;;;;;;3.45;1.42;;;12.60;99.90;;;;;;5012293;28;20108;-44
2024/02/20 05:39:00;;;;;;;2.38;0.60;;;12.60;99.90;;;;;;5013152;28;20032;-44
2024/02/20 05:41:30;;;;;;;2.05;0.65;;;12.60;99.90;;;;;;5013463;28;20048;-44
2024/02/20 05:43:58;;;;;;;1.90;0.80;;;12.60;99.90;;;;;;5012724;28;20022;-44
2024/02/20 05:46:35;;;;;;;2.55;1.00;;;12.60;99.90;;;;;;5012527;28;20377;-45
2024/02/20 05:49:05;;;;;;;3.22;1.05;;;12.60;99.90;;;;;;5012283;28;20033;-44
2024/02/20 05:51:32;;;;;;;2.90;0.93;;;12.60;99.90;;;;;;5012738;28;20536;-44
2024/02/20 05:53:59;;;;;;;3.38;1.00;;;12.50;99.90;;;;;;5012844;28;20026;-44
2024/02/20 05:56:25;;;;;;;2.45;1.00;;;12.50;99.90;;;;;;5012404;28;20088;-44
2024/02/20 05:58:51;;;;;;;1.25;0.73;;;12.50;99.90;;;;;;5012899;28;20025;-44
2024/02/20 06:01:18;;;;;;;2.58;0.73;;;12.50;99.90;;;;;;5012724;28;20026;-44
2024/02/20 06:03:46;;;;;;;2.22;0.93;;;12.50;99.90;;;;;;5011017;28;20522;-44
2024/02/20 06:06:15;;;;;;;3.00;1.08;;;12.50;99.90;;;;;;5011305;28;20032;-44
2024/02/20 06:08:47;;;;;;;2.13;0.80;;;12.50;99.90;;;;;;5011332;28;20030;-44
2024/02/20 06:11:13;;;;;;;3.22;0.85;;;12.50;99.90;;;;;;5012240;28;20026;-44
2024/02/20 06:13:39;;;;;;;4.43;1.02;;;12.50;99.90;;;;;;5012207;28;20026;-45
2024/02/20 06:16:05;;;;;;;1.90;0.77;;;12.50;99.90;;;;;;5011354;28;20161;-45
2024/02/20 06:18:30;;;;;;;2.08;0.82;;;12.50;99.90;;;;;;5011382;28;20128;-45
2024/02/20 06:20:56;;;;;;;2.40;1.00;;;12.50;99.90;;;;;;5011439;28;20041;-45
2024/02/20 06:23:21;;;;;;;3.20;0.90;;;12.50;99.90;;;;;;5011445;28;20030;-45
2024/02/20 06:25:47;;;;;;;2.10;0.85;;;12.50;99.90;;;;;;5011219;28;20081;-45
2024/02/20 06:28:14;;;;;;;2.80;0.90;;;12.50;99.90;;;;;;5011346;28;20037;-45
2024/02/20 06:30:41;;;;;;;1.95;1.00;;;12.50;99.90;;;;;;5011478;28;20030;-44
2024/02/20 06:33:07;;;;;;;2.83;0.88;;;12.50;99.90;;;;;;5011433;28;20022;-45
2024/02/20 06:35:32;;;;;;;2.70;1.13;;;12.50;99.90;;;;;;5011397;28;20376;-45
2024/02/20 06:37:58;;;;;;;4.97;1.30;;;12.50;99.90;;;;;;5011518;28;20109;-45
2024/02/20 06:40:23;;;;;;;1.48;0.88;;;12.50;99.90;;;;;;5011534;28;20105;-45
2024/02/20 06:42:49;;;;;;;2.80;1.00;;;12.50;99.90;;;;;;5011563;28;20248;-45
2024/02/20 06:45:15;;;;;;;5.00;1.30;;;12.50;99.90;;;;;;5011319;28;20583;-45
2024/02/20 06:47:42;;;;;;;3.03;1.10;;;12.50;99.90;;;;;;5011210;28;20030;-45
2024/02/20 06:50:11;;;;;;;2.25;0.98;;;12.60;99.90;;;;;;5009860;28;20030;-45
2024/02/20 06:52:39;;;;;;;5.38;1.17;;;12.60;99.90;;;;;;5011304;28;20076;-45
2024/02/20 06:55:06;;;;;;;4.13;1.30;;;12.60;99.90;;;;;;5011275;28;20038;-44
2024/02/20 06:57:31;;;;;;;3.15;0.93;;;12.60;99.90;;;;;;5011124;28;20018;-44
2024/02/20 06:59:57;;;;;;;4.18;1.08;;;12.70;99.90;;;;;;5011438;28;20080;-44
2024/02/20 07:02:23;;;;;;;4.28;1.38;;;12.70;99.90;;;;;;5011263;28;20034;-45
2024/02/20 07:04:49;;;;;;;3.13;1.25;;;12.80;99.90;;;;;;5011117;28;20029;-45
2024/02/20 07:07:15;;;;;;;3.65;1.02;;;12.80;99.90;;;;;;5011607;28;20112;-46
2024/02/20 07:09:40;;;;;;;2.17;1.08;;;12.80;99.90;;;;;;5010055;28;20157;-44
2024/02/20 07:12:06;;;;;;;2.67;1.25;;;12.90;99.90;;;;;;5011153;28;20021;-45
2024/02/20 07:14:32;;;;;;;2.30;0.90;;;13.00;99.90;;;;;;5011225;28;20492;-44
2024/02/20 07:16:58;;;;;;;3.40;1.20;;;13.00;99.90;;;;;;5012567;28;20487;-45
2024/02/20 07:19:25;;;;;;;2.00;0.90;;;13.10;99.90;;;;;;5014617;28;20030;-45
2024/02/20 07:21:51;;;;;;;3.13;1.23;;;13.20;99.90;;;;;;5014464;28;20544;-45
2024/02/20 07:24:16;;;;;;;2.55;0.98;;;13.20;99.90;;;;;;5014413;28;20101;-45
2024/02/20 07:26:43;;;;;;;3.95;1.20;;;13.30;99.90;;;;;;5014127;28;20029;-43
2024/02/20 07:29:09;;;;;;;2.50;1.25;;;13.40;99.90;;;;;;5014306;28;20491;-44
2024/02/20 07:31:35;;;;;;;4.15;1.00;;;13.40;99.80;;;;;;5014189;28;20021;-44
2024/02/20 07:34:01;;;;;;;2.60;0.90;;;13.50;99.70;;;;;;5014629;28;20029;-44
2024/02/20 07:36:26;;;;;;;4.60;1.40;;;13.50;99.60;;;;;;5014134;28;20069;-44
2024/02/20 07:38:52;;;;;;;3.55;1.00;;;13.60;99.50;;;;;;5014081;28;20031;-43
2024/02/20 07:41:17;;;;;;;3.60;1.23;;;13.70;99.40;;;;;;5014070;28;20048;-44
2024/02/20 07:43:45;;;;;;;2.92;1.30;;;13.70;99.30;;;;;;5014124;28;20022;-43
2024/02/20 07:46:13;;;;;;;3.35;1.20;;;13.80;99.30;;;;;;5014066;28;20109;-43
2024/02/20 07:48:39;;;;;;;2.47;1.13;;;13.90;99.10;;;;;;5014159;28;20080;-44
2024/02/20 07:51:05;;;;;;;4.32;1.38;;;13.90;99.00;;;;;;5014009;28;20396;-43
2024/02/20 07:53:31;;;;;;;3.08;1.17;;;14.00;98.90;;;;;;5013986;28;20048;-43
2024/02/20 07:55:57;;;;;;;3.47;1.30;;;14.00;98.80;;;;;;5013695;28;20480;-44
2024/02/20 07:58:22;;;;;;;2.60;1.33;;;14.10;98.80;;;;;;5013716;28;20022;-45
2024/02/20 08:00:48;;;;;;;2.90;1.00;;;14.10;98.70;;;;;;5013677;28;20392;-44
2024/02/20 08:03:14;;;;;;;3.55;1.20;;;14.20;98.60;;;;;;5013743;28;20033;-44
2024/02/20 08:05:41;;;;;;;1.80;0.90;;;14.30;98.50;;;;;;5013588;28;20517;-45
2024/02/20 08:08:07;;;;;;;4.20;1.10;;;14.40;98.50;;;;;;5013619;28;20037;-44
2024/02/20 08:10:33;;;;;;;2.78;1.23;;;14.50;98.40;;;;;;5012101;28;20120;-44
2024/02/20 08:12:58;;;;;;;1.50;0.63;;;14.50;98.30;;;;;;5013585;28;20093;-45
2024/02/20 08:15:24;;;;;;;2.58;0.98;;;14.60;98.30;;;;;;5013377;28;20049;-45
2024/02/20 08:17:50;;;;;;;3.47;0.98;;;14.70;98.20;;;;;;5013386;28;20167;-44
2024/02/20 08:20:15;;;;;;;2.70;1.13;;;14.70;98.10;;;;;;5013401;28;20026;-44
2024/02/20 08:22:41;;;;;;;2.65;0.90;;;14.80;98.00;;;;;;5013397;28;20026;-44
2024/02/20 08:25:07;;;;;;;2.28;1.00;;;14.90;97.90;;;;;;5011684;28;20506;-44
2024/02/20 08:27:33;;;;;;;2.72;1.05;;;15.00;97.80;;;;;;5012851;28;20105;-44
2024/02/20 08:29:58;;;;;;;1.67;0.93;;;15.10;97.70;;;;;;5012556;28;20472;-44
2024/02/20 08:32:24;;;;;;;2.13;0.93;;;15.10;97.60;;;;;;5013209;28;20037;-44
2024/02/20 08:34:51;;;;;;;2.05;1.00;;;15.20;97.50;;;;;;5011666;28;20081;-44
2024/02/20 08:37:17;;;;;;;2.13;0.85;;;15.30;97.70;;;;;;5013079;28;20380;-44
2024/02/20 08:39:44;;;;;;;3.65;1.08;;;15.30;97.20;;;;;;5012808;28;20113;-45
2024/02/20 08:42:10;;;;;;;2.80;1.00;;;15.40;97.10;;;;;;5013029;28;20472;-45
2024/02/20 08:44:35;;;;;;;2.92;1.20;;;15.50;97.10;;;;;;5013254;28;20109;-45
2024/02/20 08:47:01;;;;;;;2.05;0.85;;;15.50;97.00;;;;;;5012856;28;20022;-45
2024/02/20 08:49:27;;;;;;;3.83;1.30;;;15.60;96.90;;;;;;5012752;28;20072;-45
2024/02/20 08:51:52;;;;;;;2.13;0.80;;;15.70;96.90;;;;;;5012843;28;20396;-44
2024/02/20 08:54:18;;;;;;;1.52;0.88;;;15.80;96.80;;;;;;5012668;28;20037;-45
2024/02/20 08:56:44;;;;;;;2.60;0.95;;;15.90;96.70;;;;;;5012557;28;20040;-44
2024/02/20 08:59:10;;;;;;;1.83;0.90;;;15.90;96.60;;;;;;5012537;28;20033;-44
2024/02/20 09:01:38;;;;;;;2.03;0.85;;;16.00;96.50;;;;;;5012780;28;20026;-44
2024/02/20 09:04:04;;;;;;;2.25;0.90;;;16.10;96.30;;;;;;5012706;28;20052;-44
2024/02/20 09:06:30;;;;;;;2.55;1.00;;;16.20;96.20;;;;;;5012516;28;20101;-44
2024/02/20 09:08:56;;;;;;;2.00;0.80;;;16.30;96.10;;;;;;5012889;28;20108;-44
2024/02/20 09:11:21;;;;;;;2.28;1.02;;;16.30;96.00;;;;;;5013483;28;20060;-44
2024/02/20 09:13:47;;;;;;;3.03;0.98;;;16.40;95.90;;;;;;5012659;28;20100;-44
2024/02/20 09:16:13;;;;;;;2.05;0.90;;;16.50;95.80;;;;;;5012357;28;20409;-44
2024/02/20 09:18:38;;;;;;;2.20;1.08;;;16.50;95.60;;;;;;5012352;28;20026;-45
2024/02/20 09:21:04;;;;;;;2.55;1.02;;;16.60;95.50;;;;;;5012283;28;20065;-44
2024/02/20 09:23:37;;;;;;;3.55;1.23;;;16.60;95.40;;;;;;5012194;28;20056;-44
2024/02/20 09:26:04;;;;;;;2.45;1.00;;;16.60;95.30;;;;;;5012049;28;20500;-43
2024/02/20 09:28:30;;;;;;;2.58;1.05;;;16.70;95.20;;;;;;5012077;28;20431;-44
2024/02/20 09:30:55;;;;;;;1.85;0.85;;;16.80;95.20;;;;;;5012358;28;20480;-44
2024/02/20 09:33:21;;;;;;;3.03;1.10;;;16.80;95.20;;;;;;5012146;28;20033;-44
2024/02/20 09:35:46;;;;;;;3.20;1.05;;;16.90;95.10;;;;;;5011839;28;20029;-43
2024/02/20 09:38:16;;;;;;;2.13;1.00;;;16.90;95.00;;;;;;5011876;28;20057;-44
2024/02/20 09:40:42;;;;;;;1.67;1.00;;;16.90;94.90;;;;;;5011672;28;20045;-44
2024/02/20 09:43:09;;;;;;;2.22;1.17;;;17.00;94.80;;;;;;5011899;28;20026;-44
2024/02/20 09:45:40;;;;;;;1.73;0.93;;;17.00;94.80;;;;;;5011806;28;20045;-44
2024/02/20 09:48:09;;;;;;;2.97;1.00;;;17.10;94.70;;;;;;5011928;28;20515;-44
2024/02/20 09:50:40;;;;;;;2.58;0.98;;;17.20;94.70;;;;;;5011698;28;20030;-44
2024/02/20 09:53:07;;;;;;;2.15;0.98;;;17.20;94.60;;;;;;5011883;28;20101;-45
2024/02/20 09:55:33;;;;;;;2.30;0.82;;;17.40;94.50;;;;;;5011693;28;20592;-45
2024/02/20 09:57:59;;;;;;;3.42;1.20;;;17.50;94.50;;;;;;5011793;28;20030;-44
2024/02/20 10:00:25;;;;;;;1.85;0.90;;;17.50;94.40;;;;;;5011724;28;20036;-45
2024/02/20 10:02:55;;;;;;;2.63;0.90;;;17.60;94.30;;;;;;5011678;28;20026;-45
2024/02/20 10:05:22;;;;;;;1.83;0.80;;;17.70;94.20;;;;;;5011602;28;20026;-44
2024/02/20 10:07:57;;;;;;;1.73;0.98;;;17.70;94.00;;;;;;5011561;28;20037;-45
2024/02/20 10:10:25;;;;;;;2.45;0.98;;;17.80;94.00;;;;;;5011482;28;20050;-45
2024/02/20 10:13:00;;;;;;;4.95;1.30;;;17.90;93.90;;;;;;5011505;28;20022;-45
2024/02/20 10:15:26;;;;;;;1.77;1.13;;;18.00;94.10;;;;;;5012300;28;20022;-45
2024/02/20 10:18:02;;;;;;;2.78;1.10;;;18.00;93.70;;;;;;5011879;28;20065;-45
2024/02/20 10:20:31;;;;;;;2.75;1.17;;;18.10;93.60;;;;;;5011555;28;20036;-45
2024/02/20 10:23:05;;;;;;;2.50;0.80;;;18.20;93.50;;;;;;5011696;28;20030;-45
2024/02/20 10:25:31;;;;;;;2.13;0.82;;;18.20;93.40;;;;;;5011403;28;20038;-45
2024/02/20 10:27:57;;;;;;;2.90;1.00;;;18.30;93.30;;;;;;5011308;28;20260;-45
2024/02/20 10:30:23;;;;;;;5.55;1.00;;;18.40;93.20;;;;;;5011328;28;20034;-45
2024/02/20 10:32:48;;;;;;;2.35;0.80;;;18.50;93.10;;;;;;5011409;28;20022;-45
2024/02/20 10:35:14;;;;;;;2.58;0.85;;;18.50;93.00;;;;;;5011311;28;20080;-45
2024/02/20 10:37:39;;;;;;;1.85;0.88;;;18.60;92.90;;;;;;5011275;28;20034;-45
2024/02/20 10:40:10;;;;;;;3.80;1.38;;;18.60;92.80;;;;;;5011584;28;20101;-45
2024/02/20 10:42:38;;;;;;;3.58;1.00;;;18.60;92.70;;;;;;5011476;28;20036;-44
2024/02/20 10:45:07;;;;;;;3.17;1.30;;;18.70;92.60;;;;;;5011215;28;20057;-44
2024/02/20 10:47:44;;;;;;;2.38;0.90;;;18.70;92.50;;;;;;5011252;28;20022;-44
2024/02/20 10:50:12;;;;;;;1.20;0.73;;;18.70;92.50;;;;;;5011203;28;20072;-44
2024/02/20 10:52:39;;;;;;;2.42;1.00;;;18.70;92.40;;;;;;5014102;28;20018;-45
2024/02/20 10:55:10;;;;;;;2.13;0.90;;;18.70;92.40;;;;;;5015131;28;20036;-44
2024/02/20 10:57:41;;;;;;;2.42;0.88;;;18.80;92.40;;;;;;5015316;28;20026;-44
2024/02/20 11:00:09;;;;;;;1.38;0.80;;;18.90;92.40;;;;;;5014985;28;20026;-43
2024/02/20 11:02:39;;;;;;;2.40;0.88;;;18.90;92.30;;;;;;5014891;28;20061;-44
2024/02/20 11:05:06;;;;;;;3.22;1.10;;;19.00;92.20;;;;;;5014733;28;20705;-43
2024/02/20 11:07:32;;;;;;;2.88;0.88;;;19.10;92.20;;;;;;5014684;28;20045;-44
2024/02/20 11:10:10;;;;;;;2.65;1.10;;;19.10;92.10;;;;;;5014590;28;20033;-45
2024/02/20 11:12:36;;;;;;;2.70;0.98;;;19.20;92.10;;;;;;5014831;28;20030;-43
2024/02/20 11:15:21;;;;;;;1.80;0.82;;;19.30;92.00;;;;;;5014726;28;20223;-43
2024/02/20 11:17:48;;;;;;;2.33;0.93;;;19.40;91.90;;;;;;5014657;28;20026;-44
2024/02/20 11:20:24;;;;;;;3.67;1.20;;;19.40;91.80;;;;;;5014544;28;20032;-44
2024/02/20 11:22:50;;;;;;;2.35;1.10;;;19.50;91.80;;;;;;5014755;28;20033;-44
2024/02/20 11:25:30;;;;;;;4.43;1.10;;;19.60;91.70;;;;;;5014407;28;20083;-44
2024/02/20 11:27:56;;;;;;;3.45;1.10;;;19.70;92.00;;;;;;5014654;28;20079;-44
2024/02/20 11:30:26;;;;;;;4.40;1.30;;;19.70;91.50;;;;;;5014494;28;20116;-45
2024/02/20 11:32:54;;;;;;;6.95;1.65;;;19.80;91.20;;;;;;5014673;28;20030;-45
2024/02/20 11:35:30;;;;;;;5.07;1.45;;;19.80;91.00;;;;;;5014302;28;20037;-44
2024/02/20 11:37:57;;;;;;;5.00;1.80;;;19.90;91.10;;;;;;5014060;28;20087;-45
2024/02/20 11:40:33;;;;;;;6.07;1.50;;;20.00;90.70;;;;;;5014051;28;20044;-45
2024/02/20 11:43:01;;;;;;;3.55;1.40;;;20.10;90.50;;;;;;5014042;28;20026;-44
2024/02/20 11:45:31;;;;;;;6.78;1.77;;;20.10;90.40;;;;;;5013959;28;20488;-44
2024/02/20 11:48:04;;;;;;;3.33;1.35;;;20.20;90.30;;;;;;5014030;28;20040;-45
2024/02/20 11:50:31;;;;;;;3.67;1.55;;;20.30;90.20;;;;;;5013999;28;20034;-44
2024/02/20 11:53:14;;;;;;;4.80;1.40;;;20.30;90.20;;;;;;5014015;28;20022;-45
2024/02/20 11:55:41;;;;;;;2.30;0.95;;;20.40;90.10;;;;;;5013880;28;20077;-44
2024/02/20 11:58:07;;;;;;;3.95;1.30;;;20.40;90.00;;;;;;5014184;28;20033;-45
2024/02/20 12:00:37;;;;;;;3.05;1.10;;;20.50;89.90;;;;;;5013997;28;20033;-45
2024/02/20 12:03:04;;;;;;;4.15;1.27;;;20.50;89.70;;;;;;5012308;28;20084;-44
2024/02/20 12:05:37;;;;;;;3.60;1.17;;;20.50;89.60;;;;;;5013651;28;20471;-44
2024/02/20 12:08:11;;;;;;;3.40;1.38;;;20.50;89.40;;;;;;5013526;28;20113;-45
2024/02/20 12:10:36;;;;;;;4.88;1.48;;;20.60;89.30;;;;;;5013514;28;20105;-44
2024/02/20 12:13:16;;;;;;;4.88;1.52;;;20.60;89.20;;;;;;5013761;28;20477;-45
2024/02/20 12:15:44;;;;;;;5.90;1.48;;;20.60;89.10;;;;;;5013371;28;20376;-45
2024/02/20 12:18:10;;;;;;;5.50;1.65;;;20.60;89.10;;;;;;5013398;28;20077;-45
2024/02/20 12:20:37;;;;;;;4.07;1.42;;;20.60;88.90;;;;;;5013809;28;20447;-45
2024/02/20 12:23:03;;;;;;;3.97;1.30;;;20.50;88.90;;;;;;5013514;28;20030;-45
2024/02/20 12:25:28;;;;;;;3.85;1.10;;;20.50;89.00;;;;;;5013363;28;20476;-44
2024/02/20 12:27:54;;;;;;;4.03;1.10;;;20.50;89.10;;;;;;5013206;28;20038;-45
2024/02/20 12:30:20;;;;;;;3.03;1.10;;;20.40;89.10;;;;;;5013142;28;20036;-45
2024/02/20 12:32:46;;;;;;;4.05;1.25;;;20.40;89.20;;;;;;5013779;28;20022;-45
2024/02/20 12:35:12;;;;;;;4.85;1.40;;;20.30;89.10;;;;;;5012848;28;20026;-45
2024/02/20 12:37:38;;;;;;;2.85;1.08;;;20.30;89.20;;;;;;5013046;28;20440;-44
2024/02/20 12:40:08;;;;;;;2.67;1.00;;;20.30;89.10;;;;;;5013037;28;20332;-44
2024/02/20 12:42:37;;;;;;;5.03;1.20;;;20.30;89.20;;;;;;5028023;28;20104;-45
2024/02/20 12:45:05;;;;;;;4.00;1.27;;;20.30;89.30;;;;;;5012779;28;20064;-45